Terminal Aerodrome Forecast
Issued by NWS Omaha/Valley, NE

Home | Current Version | Previous Version | Graphics & Text | Print | Product List | Glossary Off
Versions: 1 2 3 4 5 6 7 8 9 10 11 12 13 14 15 16 17 18 19 20 21 22 23 24 25 26 27 28 29 30 31 32 33 34 35

000
FTUS43 KOAX 281720
TAFOFK
TAF
KOFK 281720Z 2818/2918 17018G25KT P6SM SKC
     FM290900 26013G21KT P6SM BKN100 PROB30 2909/2912 5SM -SHRA
      BKN040
     FM291200 34020G30KT P6SM SCT100=

USA.gov is the U.S. government's official web portal to all federal, state and local government web resources and services.